sensor_id;sensor_type;location;lat;lon;timestamp;P1;durP1;ratioP1;P2;durP2;ratioP2
56752;SDS011;42627;42.646;23.642;2022-12-18T00:01:32;8.05;;;3.85;;
56752;SDS011;42627;42.646;23.642;2022-12-18T00:03:33;10.50;;;4.20;;
56752;SDS011;42627;42.646;23.642;2022-12-18T00:05:34;10.38;;;4.30;;
56752;SDS011;42627;42.646;23.642;2022-12-18T00:09:50;10.00;;;4.07;;
56752;SDS011;42627;42.646;23.642;2022-12-18T00:11:51;6.88;;;4.28;;
56752;SDS011;42627;42.646;23.642;2022-12-18T00:13:54;10.52;;;3.67;;
56752;SDS011;42627;42.646;23.642;2022-12-18T00:15:55;11.57;;;4.25;;
56752;SDS011;42627;42.646;23.642;2022-12-18T00:17:56;8.55;;;4.25;;
56752;SDS011;42627;42.646;23.642;2022-12-18T00:19:57;12.02;;;4.75;;
56752;SDS011;42627;42.646;23.642;2022-12-18T00:21:58;5.97;;;3.38;;
56752;SDS011;42627;42.646;23.642;2022-12-18T00:23:59;7.35;;;3.45;;
56752;SDS011;42627;42.646;23.642;2022-12-18T00:26:01;8.63;;;3.47;;
56752;SDS011;42627;42.646;23.642;2022-12-18T00:28:03;10.07;;;3.63;;
56752;SDS011;42627;42.646;23.642;2022-12-18T00:30:04;8.00;;;3.25;;
56752;SDS011;42627;42.646;23.642;2022-12-18T00:32:05;8.48;;;3.53;;
56752;SDS011;42627;42.646;23.642;2022-12-18T00:34:06;10.65;;;3.83;;
56752;SDS011;42627;42.646;23.642;2022-12-18T00:36:09;7.85;;;3.13;;
56752;SDS011;42627;42.646;23.642;2022-12-18T00:38:10;6.80;;;3.83;;
56752;SDS011;42627;42.646;23.642;2022-12-18T00:40:11;9.63;;;3.83;;
56752;SDS011;42627;42.646;23.642;2022-12-18T00:42:12;11.40;;;4.13;;
56752;SDS011;42627;42.646;23.642;2022-12-18T00:46:56;6.55;;;3.25;;
56752;SDS011;42627;42.646;23.642;2022-12-18T00:48:57;9.93;;;3.80;;
56752;SDS011;42627;42.646;23.642;2022-12-18T00:50:58;9.00;;;4.00;;
56752;SDS011;42627;42.646;23.642;2022-12-18T00:52:59;8.70;;;3.90;;
56752;SDS011;42627;42.646;23.642;2022-12-18T00:55:00;11.82;;;4.30;;
56752;SDS011;42627;42.646;23.642;2022-12-18T00:57:01;7.78;;;3.65;;
56752;SDS011;42627;42.646;23.642;2022-12-18T00:59:08;7.05;;;4.53;;
56752;SDS011;42627;42.646;23.642;2022-12-18T01:01:11;9.40;;;3.85;;
56752;SDS011;42627;42.646;23.642;2022-12-18T01:03:13;8.63;;;4.25;;
56752;SDS011;42627;42.646;23.642;2022-12-18T01:05:14;9.20;;;3.58;;
56752;SDS011;42627;42.646;23.642;2022-12-18T01:07:16;14.60;;;5.00;;
56752;SDS011;42627;42.646;23.642;2022-12-18T01:09:17;10.00;;;3.88;;
56752;SDS011;42627;42.646;23.642;2022-12-18T01:11:18;8.55;;;4.38;;
56752;SDS011;42627;42.646;23.642;2022-12-18T01:13:19;10.25;;;4.25;;
56752;SDS011;42627;42.646;23.642;2022-12-18T01:15:20;7.95;;;3.97;;
56752;SDS011;42627;42.646;23.642;2022-12-18T01:23:44;9.05;;;5.07;;
56752;SDS011;42627;42.646;23.642;2022-12-18T01:25:45;11.55;;;4.25;;
56752;SDS011;42627;42.646;23.642;2022-12-18T01:27:46;12.32;;;4.22;;
56752;SDS011;42627;42.646;23.642;2022-12-18T01:29:47;7.38;;;3.97;;
56752;SDS011;42627;42.646;23.642;2022-12-18T01:31:48;13.60;;;5.57;;
56752;SDS011;42627;42.646;23.642;2022-12-18T01:33:50;8.68;;;3.45;;
56752;SDS011;42627;42.646;23.642;2022-12-18T01:35:54;10.05;;;4.07;;
56752;SDS011;42627;42.646;23.642;2022-12-18T01:37:55;9.85;;;5.28;;
56752;SDS011;42627;42.646;23.642;2022-12-18T01:39:56;7.60;;;4.15;;
56752;SDS011;42627;42.646;23.642;2022-12-18T01:41:57;8.63;;;3.90;;
56752;SDS011;42627;42.646;23.642;2022-12-18T01:44:01;14.02;;;4.88;;
56752;SDS011;42627;42.646;23.642;2022-12-18T01:46:02;8.25;;;4.28;;
56752;SDS011;42627;42.646;23.642;2022-12-18T01:48:05;10.30;;;4.50;;
56752;SDS011;42627;42.646;23.642;2022-12-18T01:52:12;8.52;;;3.28;;
56752;SDS011;42627;42.646;23.642;2022-12-18T01:54:14;6.90;;;3.90;;
56752;SDS011;42627;42.646;23.642;2022-12-18T01:56:16;15.15;;;3.92;;
56752;SDS011;42627;42.646;23.642;2022-12-18T01:58:18;10.77;;;4.55;;
56752;SDS011;42627;42.646;23.642;2022-12-18T02:00:20;9.27;;;3.83;;
56752;SDS011;42627;42.646;23.642;2022-12-18T02:02:21;11.10;;;4.43;;
56752;SDS011;42627;42.646;23.642;2022-12-18T02:04:24;11.57;;;4.15;;
56752;SDS011;42627;42.646;23.642;2022-12-18T02:06:44;9.60;;;3.60;;
56752;SDS011;42627;42.646;23.642;2022-12-18T02:08:51;9.68;;;4.10;;
56752;SDS011;42627;42.646;23.642;2022-12-18T02:11:03;8.48;;;4.40;;
56752;SDS011;42627;42.646;23.642;2022-12-18T02:13:19;7.97;;;3.80;;
56752;SDS011;42627;42.646;23.642;2022-12-18T02:17:23;10.38;;;4.85;;
56752;SDS011;42627;42.646;23.642;2022-12-18T02:27:33;7.85;;;3.47;;
56752;SDS011;42627;42.646;23.642;2022-12-18T02:29:39;11.05;;;4.38;;
56752;SDS011;42627;42.646;23.642;2022-12-18T02:31:51;7.78;;;3.67;;
56752;SDS011;42627;42.646;23.642;2022-12-18T02:33:53;8.07;;;3.67;;
56752;SDS011;42627;42.646;23.642;2022-12-18T02:36:01;9.70;;;3.75;;
56752;SDS011;42627;42.646;23.642;2022-12-18T02:38:03;8.77;;;3.35;;
56752;SDS011;42627;42.646;23.642;2022-12-18T02:40:05;13.25;;;4.80;;
56752;SDS011;42627;42.646;23.642;2022-12-18T02:42:06;10.05;;;4.38;;
56752;SDS011;42627;42.646;23.642;2022-12-18T02:44:10;10.38;;;4.57;;
56752;SDS011;42627;42.646;23.642;2022-12-18T02:46:21;9.80;;;4.95;;
56752;SDS011;42627;42.646;23.642;2022-12-18T02:48:29;8.43;;;3.83;;
56752;SDS011;42627;42.646;23.642;2022-12-18T02:50:43;6.15;;;3.83;;
56752;SDS011;42627;42.646;23.642;2022-12-18T02:52:49;8.60;;;3.95;;
56752;SDS011;42627;42.646;23.642;2022-12-18T02:56:55;8.73;;;4.20;;
56752;SDS011;42627;42.646;23.642;2022-12-18T02:58:59;13.35;;;4.13;;
56752;SDS011;42627;42.646;23.642;2022-12-18T03:03:35;10.98;;;5.43;;
56752;SDS011;42627;42.646;23.642;2022-12-18T03:05:41;13.57;;;5.30;;
56752;SDS011;42627;42.646;23.642;2022-12-18T03:09:46;8.65;;;4.25;;
56752;SDS011;42627;42.646;23.642;2022-12-18T03:11:50;8.15;;;4.65;;
56752;SDS011;42627;42.646;23.642;2022-12-18T03:14:12;7.45;;;4.53;;
56752;SDS011;42627;42.646;23.642;2022-12-18T03:16:15;9.70;;;4.88;;
56752;SDS011;42627;42.646;23.642;2022-12-18T03:20:19;9.00;;;4.43;;
56752;SDS011;42627;42.646;23.642;2022-12-18T03:22:23;8.68;;;3.92;;
56752;SDS011;42627;42.646;23.642;2022-12-18T03:24:25;7.80;;;3.25;;
56752;SDS011;42627;42.646;23.642;2022-12-18T03:26:27;11.52;;;4.53;;
56752;SDS011;42627;42.646;23.642;2022-12-18T03:28:28;7.50;;;3.63;;
56752;SDS011;42627;42.646;23.642;2022-12-18T03:30:30;7.75;;;3.60;;
56752;SDS011;42627;42.646;23.642;2022-12-18T03:34:56;8.15;;;3.95;;
56752;SDS011;42627;42.646;23.642;2022-12-18T03:37:06;5.90;;;2.95;;
56752;SDS011;42627;42.646;23.642;2022-12-18T03:39:07;10.90;;;4.38;;
56752;SDS011;42627;42.646;23.642;2022-12-18T03:41:19;10.02;;;4.55;;
56752;SDS011;42627;42.646;23.642;2022-12-18T03:43:47;9.25;;;3.97;;
56752;SDS011;42627;42.646;23.642;2022-12-18T03:45:52;13.95;;;4.70;;
56752;SDS011;42627;42.646;23.642;2022-12-18T03:52:29;5.72;;;3.22;;
56752;SDS011;42627;42.646;23.642;2022-12-18T03:54:31;16.67;;;4.57;;
56752;SDS011;42627;42.646;23.642;2022-12-18T03:56:35;8.23;;;4.50;;
56752;SDS011;42627;42.646;23.642;2022-12-18T03:58:37;9.35;;;3.67;;
56752;SDS011;42627;42.646;23.642;2022-12-18T04:00:39;12.30;;;4.93;;
56752;SDS011;42627;42.646;23.642;2022-12-18T04:02:42;12.32;;;4.72;;
56752;SDS011;42627;42.646;23.642;2022-12-18T04:04:45;7.88;;;3.85;;
56752;SDS011;42627;42.646;23.642;2022-12-18T04:06:47;9.38;;;4.28;;
56752;SDS011;42627;42.646;23.642;2022-12-18T04:08:50;7.72;;;3.90;;
56752;SDS011;42627;42.646;23.642;2022-12-18T04:10:51;9.98;;;4.13;;
56752;SDS011;42627;42.646;23.642;2022-12-18T04:12:55;8.63;;;3.42;;
56752;SDS011;42627;42.646;23.642;2022-12-18T04:14:57;7.00;;;3.70;;
56752;SDS011;42627;42.646;23.642;2022-12-18T04:16:58;11.10;;;4.55;;
56752;SDS011;42627;42.646;23.642;2022-12-18T04:18:59;11.32;;;5.05;;
56752;SDS011;42627;42.646;23.642;2022-12-18T04:21:00;10.95;;;4.00;;
56752;SDS011;42627;42.646;23.642;2022-12-18T04:23:03;10.05;;;4.15;;
56752;SDS011;42627;42.646;23.642;2022-12-18T04:25:04;9.23;;;5.20;;
56752;SDS011;42627;42.646;23.642;2022-12-18T04:27:06;7.70;;;3.70;;
56752;SDS011;42627;42.646;23.642;2022-12-18T04:29:07;8.27;;;4.25;;
56752;SDS011;42627;42.646;23.642;2022-12-18T04:31:24;11.13;;;3.97;;
56752;SDS011;42627;42.646;23.642;2022-12-18T04:33:26;9.73;;;3.75;;
56752;SDS011;42627;42.646;23.642;2022-12-18T04:35:27;10.05;;;3.88;;
56752;SDS011;42627;42.646;23.642;2022-12-18T04:37:28;7.82;;;3.95;;
56752;SDS011;42627;42.646;23.642;2022-12-18T04:39:29;8.13;;;4.03;;
56752;SDS011;42627;42.646;23.642;2022-12-18T04:41:30;9.65;;;4.32;;
56752;SDS011;42627;42.646;23.642;2022-12-18T04:43:31;11.05;;;5.43;;
56752;SDS011;42627;42.646;23.642;2022-12-18T04:45:33;7.80;;;4.38;;
56752;SDS011;42627;42.646;23.642;2022-12-18T04:47:34;13.48;;;5.10;;
56752;SDS011;42627;42.646;23.642;2022-12-18T05:01:09;11.32;;;5.28;;
56752;SDS011;42627;42.646;23.642;2022-12-18T05:03:10;15.45;;;6.90;;
56752;SDS011;42627;42.646;23.642;2022-12-18T05:05:14;13.88;;;5.90;;
56752;SDS011;42627;42.646;23.642;2022-12-18T05:07:17;13.80;;;6.22;;
56752;SDS011;42627;42.646;23.642;2022-12-18T05:09:18;11.00;;;4.40;;
56752;SDS011;42627;42.646;23.642;2022-12-18T05:11:19;12.98;;;5.10;;
56752;SDS011;42627;42.646;23.642;2022-12-18T05:13:20;11.77;;;4.38;;
56752;SDS011;42627;42.646;23.642;2022-12-18T05:15:21;14.02;;;6.00;;
56752;SDS011;42627;42.646;23.642;2022-12-18T05:17:22;12.27;;;5.13;;
56752;SDS011;42627;42.646;23.642;2022-12-18T05:19:23;29.60;;;10.27;;
56752;SDS011;42627;42.646;23.642;2022-12-18T05:21:24;22.38;;;7.85;;
56752;SDS011;42627;42.646;23.642;2022-12-18T05:23:25;11.57;;;6.55;;
56752;SDS011;42627;42.646;23.642;2022-12-18T05:25:26;11.50;;;5.20;;
56752;SDS011;42627;42.646;23.642;2022-12-18T05:27:27;9.70;;;4.88;;
56752;SDS011;42627;42.646;23.642;2022-12-18T05:29:28;11.32;;;4.95;;
56752;SDS011;42627;42.646;23.642;2022-12-18T05:31:30;12.13;;;4.78;;
56752;SDS011;42627;42.646;23.642;2022-12-18T05:33:31;15.98;;;5.60;;
56752;SDS011;42627;42.646;23.642;2022-12-18T05:35:33;20.10;;;7.75;;
56752;SDS011;42627;42.646;23.642;2022-12-18T05:37:34;13.50;;;5.65;;
56752;SDS011;42627;42.646;23.642;2022-12-18T05:39:35;15.45;;;6.40;;
56752;SDS011;42627;42.646;23.642;2022-12-18T05:41:36;16.63;;;6.35;;
56752;SDS011;42627;42.646;23.642;2022-12-18T05:43:37;16.92;;;7.13;;
56752;SDS011;42627;42.646;23.642;2022-12-18T05:45:39;16.98;;;6.63;;
56752;SDS011;42627;42.646;23.642;2022-12-18T05:47:40;17.30;;;6.78;;
56752;SDS011;42627;42.646;23.642;2022-12-18T05:49:41;19.52;;;8.60;;
56752;SDS011;42627;42.646;23.642;2022-12-18T05:51:42;14.80;;;6.15;;
56752;SDS011;42627;42.646;23.642;2022-12-18T05:53:43;15.82;;;7.63;;
56752;SDS011;42627;42.646;23.642;2022-12-18T05:55:44;20.15;;;8.05;;
56752;SDS011;42627;42.646;23.642;2022-12-18T05:57:46;23.67;;;8.77;;
56752;SDS011;42627;42.646;23.642;2022-12-18T05:59:47;15.80;;;7.38;;
56752;SDS011;42627;42.646;23.642;2022-12-18T06:01:48;15.82;;;6.93;;
56752;SDS011;42627;42.646;23.642;2022-12-18T06:03:49;15.18;;;6.80;;
56752;SDS011;42627;42.646;23.642;2022-12-18T06:05:50;18.98;;;5.63;;
56752;SDS011;42627;42.646;23.642;2022-12-18T06:07:51;12.15;;;6.15;;
56752;SDS011;42627;42.646;23.642;2022-12-18T06:09:52;13.40;;;6.43;;
56752;SDS011;42627;42.646;23.642;2022-12-18T06:11:53;15.02;;;6.25;;
56752;SDS011;42627;42.646;23.642;2022-12-18T06:13:59;16.77;;;7.53;;
56752;SDS011;42627;42.646;23.642;2022-12-18T06:16:04;18.83;;;6.88;;
56752;SDS011;42627;42.646;23.642;2022-12-18T06:18:08;13.73;;;5.60;;
56752;SDS011;42627;42.646;23.642;2022-12-18T06:20:09;15.50;;;6.90;;
56752;SDS011;42627;42.646;23.642;2022-12-18T06:22:10;14.63;;;6.90;;
56752;SDS011;42627;42.646;23.642;2022-12-18T06:24:11;16.17;;;6.35;;
56752;SDS011;42627;42.646;23.642;2022-12-18T06:26:12;18.48;;;5.78;;
56752;SDS011;42627;42.646;23.642;2022-12-18T06:28:13;16.08;;;5.45;;
56752;SDS011;42627;42.646;23.642;2022-12-18T06:30:15;15.35;;;6.20;;
56752;SDS011;42627;42.646;23.642;2022-12-18T06:32:16;16.58;;;6.25;;
56752;SDS011;42627;42.646;23.642;2022-12-18T07:03:00;20.70;;;7.72;;
56752;SDS011;42627;42.646;23.642;2022-12-18T07:05:02;17.80;;;7.35;;
56752;SDS011;42627;42.646;23.642;2022-12-18T07:07:03;16.42;;;7.25;;
56752;SDS011;42627;42.646;23.642;2022-12-18T07:09:04;18.35;;;7.22;;
56752;SDS011;42627;42.646;23.642;2022-12-18T07:11:05;27.42;;;10.52;;
56752;SDS011;42627;42.646;23.642;2022-12-18T07:13:06;22.15;;;8.25;;
56752;SDS011;42627;42.646;23.642;2022-12-18T07:15:07;18.88;;;8.52;;
56752;SDS011;42627;42.646;23.642;2022-12-18T07:17:08;20.77;;;8.35;;
56752;SDS011;42627;42.646;23.642;2022-12-18T07:19:09;34.30;;;12.88;;
56752;SDS011;42627;42.646;23.642;2022-12-18T07:21:16;25.13;;;10.63;;
56752;SDS011;42627;42.646;23.642;2022-12-18T07:23:17;22.60;;;9.80;;
56752;SDS011;42627;42.646;23.642;2022-12-18T07:25:18;49.83;;;16.75;;
56752;SDS011;42627;42.646;23.642;2022-12-18T07:27:19;68.65;;;18.50;;
56752;SDS011;42627;42.646;23.642;2022-12-18T07:29:20;32.95;;;12.98;;
56752;SDS011;42627;42.646;23.642;2022-12-18T07:31:21;33.05;;;14.23;;
56752;SDS011;42627;42.646;23.642;2022-12-18T07:33:22;21.85;;;9.95;;
56752;SDS011;42627;42.646;23.642;2022-12-18T07:35:23;17.73;;;6.55;;
56752;SDS011;42627;42.646;23.642;2022-12-18T07:37:24;18.85;;;7.38;;
56752;SDS011;42627;42.646;23.642;2022-12-18T07:39:25;17.33;;;8.23;;
56752;SDS011;42627;42.646;23.642;2022-12-18T07:41:26;25.10;;;11.40;;
56752;SDS011;42627;42.646;23.642;2022-12-18T07:43:28;45.75;;;17.45;;
56752;SDS011;42627;42.646;23.642;2022-12-18T07:45:29;30.73;;;10.13;;
56752;SDS011;42627;42.646;23.642;2022-12-18T07:47:30;24.85;;;11.57;;
56752;SDS011;42627;42.646;23.642;2022-12-18T07:49:31;22.42;;;9.30;;
56752;SDS011;42627;42.646;23.642;2022-12-18T07:51:32;22.10;;;8.80;;
56752;SDS011;42627;42.646;23.642;2022-12-18T07:53:33;20.35;;;9.00;;
56752;SDS011;42627;42.646;23.642;2022-12-18T07:55:34;19.95;;;8.65;;
56752;SDS011;42627;42.646;23.642;2022-12-18T07:57:35;20.27;;;8.13;;
56752;SDS011;42627;42.646;23.642;2022-12-18T07:59:36;21.38;;;10.40;;
56752;SDS011;42627;42.646;23.642;2022-12-18T08:01:38;26.75;;;11.43;;
56752;SDS011;42627;42.646;23.642;2022-12-18T08:03:39;18.80;;;9.02;;
56752;SDS011;42627;42.646;23.642;2022-12-18T08:05:41;18.75;;;8.50;;
56752;SDS011;42627;42.646;23.642;2022-12-18T08:07:42;13.60;;;5.93;;
56752;SDS011;42627;42.646;23.642;2022-12-18T08:09:43;13.63;;;6.93;;
56752;SDS011;42627;42.646;23.642;2022-12-18T08:11:44;17.88;;;8.32;;
56752;SDS011;42627;42.646;23.642;2022-12-18T08:13:45;11.82;;;6.65;;
56752;SDS011;42627;42.646;23.642;2022-12-18T08:15:46;16.23;;;7.05;;
56752;SDS011;42627;42.646;23.642;2022-12-18T08:17:47;21.48;;;7.53;;
56752;SDS011;42627;42.646;23.642;2022-12-18T08:19:48;25.25;;;9.10;;
56752;SDS011;42627;42.646;23.642;2022-12-18T08:21:49;18.20;;;7.72;;
56752;SDS011;42627;42.646;23.642;2022-12-18T08:23:50;22.55;;;8.15;;
56752;SDS011;42627;42.646;23.642;2022-12-18T08:25:51;23.00;;;10.82;;
56752;SDS011;42627;42.646;23.642;2022-12-18T08:27:52;17.17;;;8.00;;
56752;SDS011;42627;42.646;23.642;2022-12-18T08:29:55;24.05;;;9.13;;
56752;SDS011;42627;42.646;23.642;2022-12-18T08:31:56;20.10;;;7.72;;
56752;SDS011;42627;42.646;23.642;2022-12-18T08:34:00;16.17;;;7.68;;
56752;SDS011;42627;42.646;23.642;2022-12-18T08:36:03;17.80;;;7.47;;
56752;SDS011;42627;42.646;23.642;2022-12-18T08:38:04;21.63;;;9.02;;
56752;SDS011;42627;42.646;23.642;2022-12-18T08:40:05;17.10;;;8.85;;
56752;SDS011;42627;42.646;23.642;2022-12-18T08:42:07;18.25;;;8.45;;
56752;SDS011;42627;42.646;23.642;2022-12-18T08:44:27;19.63;;;8.50;;
56752;SDS011;42627;42.646;23.642;2022-12-18T08:46:41;20.50;;;8.07;;
56752;SDS011;42627;42.646;23.642;2022-12-18T08:48:42;22.63;;;8.18;;
56752;SDS011;42627;42.646;23.642;2022-12-18T08:50:44;18.10;;;7.47;;
56752;SDS011;42627;42.646;23.642;2022-12-18T08:52:53;18.25;;;6.93;;
56752;SDS011;42627;42.646;23.642;2022-12-18T08:54:54;21.83;;;8.23;;
56752;SDS011;42627;42.646;23.642;2022-12-18T08:56:55;13.32;;;7.03;;
56752;SDS011;42627;42.646;23.642;2022-12-18T08:58:56;14.93;;;6.65;;
56752;SDS011;42627;42.646;23.642;2022-12-18T09:01:01;13.32;;;6.32;;
56752;SDS011;42627;42.646;23.642;2022-12-18T09:03:02;21.30;;;8.80;;
56752;SDS011;42627;42.646;23.642;2022-12-18T09:05:03;21.80;;;7.85;;
56752;SDS011;42627;42.646;23.642;2022-12-18T09:07:04;25.92;;;8.88;;
56752;SDS011;42627;42.646;23.642;2022-12-18T09:09:05;25.63;;;8.90;;
56752;SDS011;42627;42.646;23.642;2022-12-18T09:11:19;35.30;;;13.35;;
56752;SDS011;42627;42.646;23.642;2022-12-18T09:13:21;18.60;;;8.75;;
56752;SDS011;42627;42.646;23.642;2022-12-18T09:15:22;25.15;;;10.85;;
56752;SDS011;42627;42.646;23.642;2022-12-18T09:17:23;16.75;;;8.25;;
56752;SDS011;42627;42.646;23.642;2022-12-18T09:19:24;24.00;;;9.63;;
56752;SDS011;42627;42.646;23.642;2022-12-18T09:21:26;21.88;;;8.57;;
56752;SDS011;42627;42.646;23.642;2022-12-18T09:23:27;23.17;;;9.25;;
56752;SDS011;42627;42.646;23.642;2022-12-18T09:25:31;17.60;;;7.90;;
56752;SDS011;42627;42.646;23.642;2022-12-18T09:27:33;20.20;;;9.30;;
56752;SDS011;42627;42.646;23.642;2022-12-18T09:29:34;22.15;;;9.32;;
56752;SDS011;42627;42.646;23.642;2022-12-18T09:31:35;22.70;;;10.10;;
56752;SDS011;42627;42.646;23.642;2022-12-18T09:33:37;24.05;;;10.52;;
56752;SDS011;42627;42.646;23.642;2022-12-18T09:35:38;18.17;;;8.63;;
56752;SDS011;42627;42.646;23.642;2022-12-18T09:37:39;16.33;;;7.68;;
56752;SDS011;42627;42.646;23.642;2022-12-18T09:39:42;21.95;;;8.32;;
56752;SDS011;42627;42.646;23.642;2022-12-18T09:41:52;23.02;;;7.65;;
56752;SDS011;42627;42.646;23.642;2022-12-18T09:44:00;26.08;;;10.43;;
56752;SDS011;42627;42.646;23.642;2022-12-18T09:46:03;25.65;;;8.73;;
56752;SDS011;42627;42.646;23.642;2022-12-18T09:48:09;16.65;;;7.10;;
56752;SDS011;42627;42.646;23.642;2022-12-18T09:50:32;12.93;;;6.22;;
56752;SDS011;42627;42.646;23.642;2022-12-18T09:52:41;17.25;;;7.60;;
56752;SDS011;42627;42.646;23.642;2022-12-18T09:54:45;20.20;;;7.43;;
56752;SDS011;42627;42.646;23.642;2022-12-18T09:56:47;24.33;;;7.25;;
56752;SDS011;42627;42.646;23.642;2022-12-18T09:59:01;18.85;;;6.80;;
56752;SDS011;42627;42.646;23.642;2022-12-18T10:01:07;17.95;;;6.57;;
56752;SDS011;42627;42.646;23.642;2022-12-18T10:03:11;19.42;;;7.07;;
56752;SDS011;42627;42.646;23.642;2022-12-18T10:05:25;15.25;;;6.05;;
56752;SDS011;42627;42.646;23.642;2022-12-18T10:07:34;14.63;;;6.10;;
56752;SDS011;42627;42.646;23.642;2022-12-18T10:09:48;21.30;;;8.18;;
56752;SDS011;42627;42.646;23.642;2022-12-18T10:12:34;24.63;;;8.60;;
56752;SDS011;42627;42.646;23.642;2022-12-18T10:18:37;27.00;;;8.80;;
56752;SDS011;42627;42.646;23.642;2022-12-18T10:20:43;18.45;;;8.15;;
56752;SDS011;42627;42.646;23.642;2022-12-18T10:23:09;25.85;;;10.05;;
56752;SDS011;42627;42.646;23.642;2022-12-18T10:27:23;20.27;;;8.18;;
56752;SDS011;42627;42.646;23.642;2022-12-18T10:29:25;18.20;;;8.55;;
56752;SDS011;42627;42.646;23.642;2022-12-18T10:31:26;16.80;;;7.47;;
56752;SDS011;42627;42.646;23.642;2022-12-18T10:33:28;19.55;;;8.55;;
56752;SDS011;42627;42.646;23.642;2022-12-18T10:35:29;15.73;;;8.27;;
56752;SDS011;42627;42.646;23.642;2022-12-18T10:37:30;18.02;;;7.72;;
56752;SDS011;42627;42.646;23.642;2022-12-18T10:39:31;15.63;;;6.97;;
56752;SDS011;42627;42.646;23.642;2022-12-18T10:41:32;16.45;;;6.82;;
56752;SDS011;42627;42.646;23.642;2022-12-18T10:43:34;17.83;;;6.90;;
56752;SDS011;42627;42.646;23.642;2022-12-18T10:45:36;14.95;;;7.13;;
56752;SDS011;42627;42.646;23.642;2022-12-18T10:47:41;20.90;;;7.85;;
56752;SDS011;42627;42.646;23.642;2022-12-18T10:49:49;18.85;;;8.45;;
56752;SDS011;42627;42.646;23.642;2022-12-18T10:51:51;14.38;;;6.68;;
56752;SDS011;42627;42.646;23.642;2022-12-18T10:56:05;24.67;;;8.73;;
56752;SDS011;42627;42.646;23.642;2022-12-18T10:58:13;15.07;;;7.53;;
56752;SDS011;42627;42.646;23.642;2022-12-18T11:02:28;17.88;;;6.97;;
56752;SDS011;42627;42.646;23.642;2022-12-18T11:04:34;18.95;;;8.35;;
56752;SDS011;42627;42.646;23.642;2022-12-18T11:06:35;16.13;;;7.85;;
56752;SDS011;42627;42.646;23.642;2022-12-18T11:11:02;21.08;;;7.80;;
56752;SDS011;42627;42.646;23.642;2022-12-18T11:13:09;21.10;;;9.30;;
56752;SDS011;42627;42.646;23.642;2022-12-18T11:15:15;18.40;;;8.55;;
56752;SDS011;42627;42.646;23.642;2022-12-18T11:17:19;18.30;;;7.38;;
56752;SDS011;42627;42.646;23.642;2022-12-18T11:19:26;23.20;;;8.80;;
56752;SDS011;42627;42.646;23.642;2022-12-18T11:21:28;21.98;;;8.98;;
56752;SDS011;42627;42.646;23.642;2022-12-18T11:23:29;25.35;;;9.98;;
56752;SDS011;42627;42.646;23.642;2022-12-18T11:25:31;17.63;;;8.93;;
56752;SDS011;42627;42.646;23.642;2022-12-18T11:27:33;24.05;;;10.23;;
56752;SDS011;42627;42.646;23.642;2022-12-18T11:29:35;17.80;;;8.68;;
56752;SDS011;42627;42.646;23.642;2022-12-18T11:31:36;20.70;;;8.10;;
56752;SDS011;42627;42.646;23.642;2022-12-18T11:33:38;18.55;;;9.10;;
56752;SDS011;42627;42.646;23.642;2022-12-18T11:35:45;20.48;;;7.53;;
56752;SDS011;42627;42.646;23.642;2022-12-18T11:37:56;12.48;;;5.57;;
56752;SDS011;42627;42.646;23.642;2022-12-18T11:40:05;16.63;;;8.52;;
56752;SDS011;42627;42.646;23.642;2022-12-18T11:42:19;18.45;;;7.50;;
56752;SDS011;42627;42.646;23.642;2022-12-18T11:44:24;17.10;;;7.82;;
56752;SDS011;42627;42.646;23.642;2022-12-18T11:46:34;20.35;;;8.38;;
56752;SDS011;42627;42.646;23.642;2022-12-18T11:48:37;15.57;;;8.25;;
56752;SDS011;42627;42.646;23.642;2022-12-18T11:52:42;22.60;;;8.98;;
56752;SDS011;42627;42.646;23.642;2022-12-18T11:54:43;21.88;;;9.27;;
56752;SDS011;42627;42.646;23.642;2022-12-18T11:58:47;19.02;;;8.38;;
56752;SDS011;42627;42.646;23.642;2022-12-18T12:00:56;29.20;;;9.90;;
56752;SDS011;42627;42.646;23.642;2022-12-18T12:05:14;27.45;;;10.23;;
56752;SDS011;42627;42.646;23.642;2022-12-18T12:09:32;19.48;;;8.23;;
56752;SDS011;42627;42.646;23.642;2022-12-18T12:11:39;26.40;;;8.98;;
56752;SDS011;42627;42.646;23.642;2022-12-18T12:13:52;23.10;;;10.43;;
56752;SDS011;42627;42.646;23.642;2022-12-18T12:16:01;17.02;;;7.70;;
56752;SDS011;42627;42.646;23.642;2022-12-18T12:20:52;19.85;;;7.72;;
56752;SDS011;42627;42.646;23.642;2022-12-18T12:23:17;18.85;;;7.60;;
56752;SDS011;42627;42.646;23.642;2022-12-18T12:25:24;30.33;;;10.27;;
56752;SDS011;42627;42.646;23.642;2022-12-18T12:36:07;19.58;;;8.18;;
56752;SDS011;42627;42.646;23.642;2022-12-18T12:40:54;15.68;;;6.88;;
56752;SDS011;42627;42.646;23.642;2022-12-18T12:42:58;16.20;;;6.60;;
56752;SDS011;42627;42.646;23.642;2022-12-18T12:45:23;15.10;;;5.95;;
56752;SDS011;42627;42.646;23.642;2022-12-18T12:47:28;22.65;;;7.43;;
56752;SDS011;42627;42.646;23.642;2022-12-18T12:49:31;16.60;;;6.90;;
56752;SDS011;42627;42.646;23.642;2022-12-18T12:51:34;19.70;;;7.47;;
56752;SDS011;42627;42.646;23.642;2022-12-18T12:53:36;16.58;;;7.40;;
56752;SDS011;42627;42.646;23.642;2022-12-18T12:55:38;20.25;;;7.35;;
56752;SDS011;42627;42.646;23.642;2022-12-18T12:57:41;15.30;;;6.60;;
56752;SDS011;42627;42.646;23.642;2022-12-18T12:59:47;20.75;;;6.80;;
56752;SDS011;42627;42.646;23.642;2022-12-18T13:05:58;14.40;;;6.07;;
56752;SDS011;42627;42.646;23.642;2022-12-18T13:08:03;17.05;;;6.47;;
56752;SDS011;42627;42.646;23.642;2022-12-18T13:10:22;14.83;;;6.47;;
56752;SDS011;42627;42.646;23.642;2022-12-18T13:12:23;13.75;;;5.63;;
56752;SDS011;42627;42.646;23.642;2022-12-18T13:14:43;15.63;;;6.38;;
56752;SDS011;42627;42.646;23.642;2022-12-18T13:16:44;18.25;;;7.38;;
56752;SDS011;42627;42.646;23.642;2022-12-18T13:18:48;13.63;;;7.05;;
56752;SDS011;42627;42.646;23.642;2022-12-18T13:22:51;13.63;;;5.93;;
56752;SDS011;42627;42.646;23.642;2022-12-18T13:24:53;20.02;;;7.53;;
56752;SDS011;42627;42.646;23.642;2022-12-18T13:26:54;18.65;;;7.13;;
56752;SDS011;42627;42.646;23.642;2022-12-18T13:28:56;18.55;;;6.72;;
56752;SDS011;42627;42.646;23.642;2022-12-18T13:30:57;14.90;;;6.70;;
56752;SDS011;42627;42.646;23.642;2022-12-18T13:39:34;23.43;;;7.07;;
56752;SDS011;42627;42.646;23.642;2022-12-18T13:41:35;17.25;;;7.75;;
56752;SDS011;42627;42.646;23.642;2022-12-18T13:45:41;22.20;;;8.93;;
56752;SDS011;42627;42.646;23.642;2022-12-18T13:47:43;17.40;;;7.57;;
56752;SDS011;42627;42.646;23.642;2022-12-18T13:49:44;20.55;;;8.40;;
56752;SDS011;42627;42.646;23.642;2022-12-18T13:51:48;16.85;;;8.38;;
56752;SDS011;42627;42.646;23.642;2022-12-18T13:53:59;21.60;;;9.05;;
56752;SDS011;42627;42.646;23.642;2022-12-18T13:56:01;21.05;;;7.15;;
56752;SDS011;42627;42.646;23.642;2022-12-18T13:58:04;29.85;;;9.75;;
56752;SDS011;42627;42.646;23.642;2022-12-18T14:02:28;23.52;;;9.85;;
56752;SDS011;42627;42.646;23.642;2022-12-18T14:04:33;27.15;;;10.05;;
56752;SDS011;42627;42.646;23.642;2022-12-18T14:06:35;25.40;;;10.18;;
56752;SDS011;42627;42.646;23.642;2022-12-18T14:08:39;26.73;;;8.93;;
56752;SDS011;42627;42.646;23.642;2022-12-18T14:10:44;31.80;;;12.65;;
56752;SDS011;42627;42.646;23.642;2022-12-18T14:12:49;31.40;;;11.15;;
56752;SDS011;42627;42.646;23.642;2022-12-18T14:14:56;28.58;;;11.73;;
56752;SDS011;42627;42.646;23.642;2022-12-18T14:16:57;22.52;;;10.27;;